SWA3554 KBWI-KMYR
Flight info
| Callsign | SWA3554 |
|---|---|
| Flight time | 0h 59m |
| Altitude | 36000 |
| Route | CONLE5 SCOOB PAACK WYLMS |
| Aircraft | B738/M-SDE2E3FGHIRWXY/LB1 |
Departure
| Time | 2026-04-27 17:32 |
|---|---|
| Airport | Baltimore/Washington International Thurgood Marshall Airport (KBWI) |
Arrival
| Time | 2026-04-27 18:31 |
|---|---|
| Airport | Myrtle Beach International Airport (KMYR) |
| Time | Latitude | Longitude | Altitude | Speed | Heading |
|---|---|---|---|---|---|
| 2026-04-27 17:15 | 39.17755 | -76.66759 | 149 ft | 0 kts | 40° |
| 2026-04-27 17:25 | 39.17752 | -76.66761 | 149 ft | 1 kts | 40° |
| 2026-04-27 17:25 | 39.17741 | -76.66773 | 149 ft | 2 kts | 41° |
| 2026-04-27 17:25 | 39.17732 | -76.66789 | 149 ft | 2 kts | 67° |
| 2026-04-27 17:26 | 39.17728 | -76.66808 | 149 ft | 2 kts | 85° |
| 2026-04-27 17:26 | 39.17729 | -76.66826 | 149 ft | 2 kts | 104° |
| 2026-04-27 17:26 | 39.17734 | -76.66843 | 149 ft | 2 kts | 123° |
| 2026-04-27 17:26 | 39.17744 | -76.66857 | 149 ft | 1 kts | 142° |
| 2026-04-27 17:27 | 39.17749 | -76.66862 | 149 ft | 1 kts | 147° |
| 2026-04-27 17:27 | 39.17750 | -76.66863 | 149 ft | 0 kts | 146° |
| 2026-04-27 17:29 | 39.17704 | -76.66823 | 149 ft | 16 kts | 144° |
| 2026-04-27 17:29 | 39.17598 | -76.66779 | 147 ft | 18 kts | 182° |
| 2026-04-27 17:29 | 39.17523 | -76.66704 | 146 ft | 15 kts | 93° |
| 2026-04-27 17:29 | 39.17538 | -76.66557 | 146 ft | 17 kts | 45° |
| 2026-04-27 17:30 | 39.17562 | -76.66441 | 146 ft | 14 kts | 126° |
| 2026-04-27 17:30 | 39.17455 | -76.66190 | 140 ft | 18 kts | 98° |
| 2026-04-27 17:30 | 39.17443 | -76.65987 | 136 ft | 24 kts | 93° |
| 2026-04-27 17:31 | 39.17430 | -76.65768 | 132 ft | 25 kts | 94° |
| 2026-04-27 17:31 | 39.17403 | -76.65538 | 124 ft | 25 kts | 133° |
| 2026-04-27 17:31 | 39.17276 | -76.65574 | 127 ft | 19 kts | 272° |
| 2026-04-27 17:31 | 39.17296 | -76.65870 | 134 ft | 67 kts | 274° |
| 2026-04-27 17:32 | 39.17351 | -76.66822 | 146 ft | 146 kts | 274° |
| 2026-04-27 17:32 | 39.17528 | -76.69827 | 1590 ft | 172 kts | 275° |
| 2026-04-27 17:32 | 39.17647 | -76.71419 | 2105 ft | 190 kts | 276° |
| 2026-04-27 17:33 | 39.17762 | -76.73120 | 2758 ft | 200 kts | 272° |
| 2026-04-27 17:33 | 39.17482 | -76.74936 | 3256 ft | 221 kts | 243° |
| 2026-04-27 17:33 | 39.16442 | -76.76457 | 3803 ft | 240 kts | 212° |
| 2026-04-27 17:33 | 39.14851 | -76.77258 | 4414 ft | 254 kts | 184° |
| 2026-04-27 17:34 | 39.13097 | -76.77083 | 5157 ft | 263 kts | 159° |
| 2026-04-27 17:34 | 39.11486 | -76.75867 | 5818 ft | 274 kts | 134° |
| 2026-04-27 17:34 | 39.10218 | -76.74067 | 6654 ft | 278 kts | 126° |
| 2026-04-27 17:34 | 39.08770 | -76.72305 | 7412 ft | 292 kts | 148° |
| 2026-04-27 17:35 | 39.06871 | -76.71518 | 8389 ft | 297 kts | 172° |
| 2026-04-27 17:35 | 39.04804 | -76.71478 | 9232 ft | 303 kts | 182° |
| 2026-04-27 17:35 | 39.02662 | -76.71624 | 10016 ft | 311 kts | 183° |
| 2026-04-27 17:35 | 39.00478 | -76.71741 | 10730 ft | 322 kts | 182° |
| 2026-04-27 17:36 | 38.98223 | -76.71799 | 11388 ft | 333 kts | 181° |
| 2026-04-27 17:36 | 38.95881 | -76.71814 | 12205 ft | 338 kts | 180° |
| 2026-04-27 17:36 | 38.93530 | -76.71806 | 13052 ft | 342 kts | 181° |
| 2026-04-27 17:36 | 38.91159 | -76.71788 | 13827 ft | 347 kts | 181° |
| 2026-04-27 17:37 | 38.88740 | -76.71767 | 14620 ft | 351 kts | 181° |
| 2026-04-27 17:37 | 38.86298 | -76.71744 | 15394 ft | 355 kts | 181° |
| 2026-04-27 17:37 | 38.83851 | -76.71723 | 16116 ft | 360 kts | 181° |
| 2026-04-27 17:37 | 38.81322 | -76.71703 | 16838 ft | 365 kts | 181° |
| 2026-04-27 17:38 | 38.78787 | -76.71682 | 17587 ft | 368 kts | 181° |
| 2026-04-27 17:38 | 38.76233 | -76.71662 | 18315 ft | 371 kts | 181° |
| 2026-04-27 17:38 | 38.73628 | -76.71643 | 18922 ft | 378 kts | 181° |
| 2026-04-27 17:38 | 38.70966 | -76.71622 | 19633 ft | 381 kts | 182° |
| 2026-04-27 17:39 | 38.68350 | -76.71603 | 20337 ft | 383 kts | 182° |
| 2026-04-27 17:39 | 38.65667 | -76.71583 | 20993 ft | 387 kts | 181° |
| 2026-04-27 17:39 | 38.62955 | -76.71561 | 21571 ft | 392 kts | 182° |
| 2026-04-27 17:39 | 38.60210 | -76.71542 | 22201 ft | 395 kts | 182° |
| 2026-04-27 17:40 | 38.57487 | -76.71523 | 22779 ft | 399 kts | 182° |
| 2026-04-27 17:40 | 38.54703 | -76.71505 | 23304 ft | 404 kts | 182° |
| 2026-04-27 17:40 | 38.51868 | -76.71486 | 23890 ft | 407 kts | 182° |
| 2026-04-27 17:40 | 38.49046 | -76.71466 | 24433 ft | 411 kts | 182° |
| 2026-04-27 17:41 | 38.46198 | -76.71446 | 24963 ft | 414 kts | 183° |
| 2026-04-27 17:41 | 38.43287 | -76.71425 | 25489 ft | 418 kts | 182° |
| 2026-04-27 17:41 | 38.40424 | -76.71369 | 25981 ft | 422 kts | 180° |
| 2026-04-27 17:41 | 38.37483 | -76.71095 | 26443 ft | 428 kts | 176° |
| 2026-04-27 17:42 | 38.34524 | -76.70653 | 26962 ft | 431 kts | 175° |
| 2026-04-27 17:42 | 38.31541 | -76.70132 | 27417 ft | 435 kts | 174° |
| 2026-04-27 17:42 | 38.28543 | -76.69591 | 27855 ft | 439 kts | 174° |
| 2026-04-27 17:42 | 38.25494 | -76.69044 | 28341 ft | 441 kts | 175° |
| 2026-04-27 17:43 | 38.22454 | -76.68512 | 28698 ft | 447 kts | 175° |
| 2026-04-27 17:43 | 38.19360 | -76.67983 | 29086 ft | 451 kts | 175° |
| 2026-04-27 17:43 | 38.16243 | -76.67460 | 29591 ft | 452 kts | 175° |
| 2026-04-27 17:43 | 38.13108 | -76.66942 | 29945 ft | 456 kts | 175° |
| 2026-04-27 17:44 | 38.09970 | -76.66432 | 30278 ft | 461 kts | 176° |
| 2026-04-27 17:44 | 38.06776 | -76.66009 | 30681 ft | 462 kts | 179° |
| 2026-04-27 17:44 | 38.03561 | -76.65729 | 31024 ft | 466 kts | 180° |
| 2026-04-27 17:44 | 38.00279 | -76.65527 | 31302 ft | 471 kts | 181° |
| 2026-04-27 17:45 | 37.97014 | -76.65353 | 31790 ft | 471 kts | 182° |
| 2026-04-27 17:45 | 37.93745 | -76.65186 | 32049 ft | 477 kts | 181° |
| 2026-04-27 17:45 | 37.90418 | -76.65011 | 32333 ft | 482 kts | 181° |
| 2026-04-27 17:45 | 37.87054 | -76.64824 | 32734 ft | 483 kts | 181° |
| 2026-04-27 17:46 | 37.83718 | -76.64629 | 33038 ft | 487 kts | 181° |
| 2026-04-27 17:46 | 37.80302 | -76.64421 | 33405 ft | 488 kts | 181° |
| 2026-04-27 17:46 | 37.76900 | -76.64207 | 33698 ft | 492 kts | 181° |
| 2026-04-27 17:46 | 37.73493 | -76.63987 | 33966 ft | 495 kts | 181° |
| 2026-04-27 17:47 | 37.70070 | -76.63763 | 34427 ft | 494 kts | 181° |
| 2026-04-27 17:47 | 37.67810 | -76.63612 | 34731 ft | 493 kts | 181° |
| 2026-04-27 17:47 | 37.63259 | -76.63353 | 35427 ft | 488 kts | 183° |
| 2026-04-27 17:47 | 37.59856 | -76.63412 | 35894 ft | 483 kts | 188° |
| 2026-04-27 17:48 | 37.56569 | -76.63856 | 36248 ft | 478 kts | 194° |
| 2026-04-27 17:48 | 37.50172 | -76.65859 | 36269 ft | 474 kts | 204° |
| 2026-04-27 17:49 | 37.43900 | -76.68465 | 36268 ft | 470 kts | 205° |
| 2026-04-27 17:49 | 37.37712 | -76.71064 | 36274 ft | 470 kts | 204° |
| 2026-04-27 17:50 | 37.31502 | -76.73583 | 36274 ft | 472 kts | 204° |
| 2026-04-27 17:50 | 37.22102 | -76.77256 | 36272 ft | 469 kts | 203° |
| 2026-04-27 17:51 | 37.15825 | -76.79666 | 36274 ft | 472 kts | 203° |
| 2026-04-27 17:51 | 37.09574 | -76.82053 | 36271 ft | 471 kts | 203° |
| 2026-04-27 17:52 | 37.03323 | -76.84431 | 36263 ft | 471 kts | 203° |
| 2026-04-27 17:52 | 36.98157 | -76.86391 | 36259 ft | 467 kts | 202° |
| 2026-04-27 17:53 | 36.90895 | -76.89153 | 36253 ft | 470 kts | 202° |
| 2026-04-27 17:53 | 36.84675 | -76.91505 | 36257 ft | 468 kts | 203° |
| 2026-04-27 17:54 | 36.78461 | -76.93855 | 36251 ft | 471 kts | 202° |
| 2026-04-27 17:54 | 36.72228 | -76.96204 | 36246 ft | 467 kts | 202° |
| 2026-04-27 17:55 | 36.65957 | -76.98563 | 36244 ft | 468 kts | 202° |
| 2026-04-27 17:55 | 36.59739 | -77.00905 | 36240 ft | 470 kts | 202° |
| 2026-04-27 17:56 | 36.53457 | -77.03265 | 36236 ft | 470 kts | 202° |
| 2026-04-27 17:56 | 36.47200 | -77.05610 | 36224 ft | 469 kts | 202° |
| 2026-04-27 17:57 | 36.40963 | -77.07944 | 36232 ft | 469 kts | 202° |
| 2026-04-27 17:57 | 36.34714 | -77.10277 | 36237 ft | 469 kts | 202° |
| 2026-04-27 17:58 | 36.28441 | -77.12612 | 36239 ft | 466 kts | 203° |
| 2026-04-27 17:58 | 36.22209 | -77.14934 | 36236 ft | 469 kts | 202° |
| 2026-04-27 17:59 | 36.15963 | -77.17255 | 36226 ft | 470 kts | 202° |
| 2026-04-27 17:59 | 36.09674 | -77.19590 | 36225 ft | 470 kts | 202° |
| 2026-04-27 18:00 | 36.03428 | -77.21906 | 36221 ft | 469 kts | 202° |
| 2026-04-27 18:00 | 35.97149 | -77.24227 | 36228 ft | 469 kts | 202° |
| 2026-04-27 18:01 | 35.90984 | -77.26708 | 36225 ft | 465 kts | 208° |
| 2026-04-27 18:01 | 35.85079 | -77.29894 | 36239 ft | 462 kts | 212° |
| 2026-04-27 18:02 | 35.79308 | -77.33275 | 36229 ft | 461 kts | 212° |
| 2026-04-27 18:02 | 35.73493 | -77.36687 | 36226 ft | 463 kts | 212° |
| 2026-04-27 18:03 | 35.67688 | -77.40037 | 36224 ft | 459 kts | 212° |
| 2026-04-27 18:03 | 35.61877 | -77.43355 | 36231 ft | 462 kts | 211° |
| 2026-04-27 18:04 | 35.56049 | -77.46658 | 36230 ft | 458 kts | 211° |
| 2026-04-27 18:04 | 35.50237 | -77.49940 | 36233 ft | 461 kts | 211° |
| 2026-04-27 18:05 | 35.44371 | -77.53246 | 36237 ft | 463 kts | 212° |
| 2026-04-27 18:05 | 35.38560 | -77.56508 | 36232 ft | 460 kts | 211° |
| 2026-04-27 18:06 | 35.32727 | -77.59782 | 36236 ft | 459 kts | 211° |
| 2026-04-27 18:06 | 35.26899 | -77.63045 | 36237 ft | 461 kts | 211° |
| 2026-04-27 18:07 | 35.21083 | -77.66296 | 36006 ft | 459 kts | 210° |
| 2026-04-27 18:07 | 35.18188 | -77.67910 | 35562 ft | 454 kts | 211° |
| 2026-04-27 18:07 | 35.15319 | -77.69509 | 34984 ft | 453 kts | 211° |
| 2026-04-27 18:08 | 35.12452 | -77.71107 | 34523 ft | 448 kts | 211° |
| 2026-04-27 18:08 | 35.09654 | -77.72663 | 34050 ft | 444 kts | 211° |
| 2026-04-27 18:08 | 35.06837 | -77.74231 | 33563 ft | 442 kts | 211° |
| 2026-04-27 18:08 | 35.04059 | -77.75777 | 33072 ft | 439 kts | 211° |
| 2026-04-27 18:09 | 35.01265 | -77.77335 | 32561 ft | 436 kts | 210° |
| 2026-04-27 18:09 | 34.98542 | -77.78850 | 32069 ft | 434 kts | 210° |
| 2026-04-27 18:09 | 34.95793 | -77.80377 | 31570 ft | 431 kts | 210° |
| 2026-04-27 18:09 | 34.93016 | -77.81924 | 31082 ft | 447 kts | 209° |
| 2026-04-27 18:10 | 34.90162 | -77.83523 | 30545 ft | 466 kts | 208° |
| 2026-04-27 18:10 | 34.87208 | -77.85171 | 29991 ft | 468 kts | 208° |
| 2026-04-27 18:10 | 34.84267 | -77.86801 | 29446 ft | 463 kts | 207° |
| 2026-04-27 18:10 | 34.81337 | -77.88416 | 28904 ft | 458 kts | 207° |
| 2026-04-27 18:11 | 34.78437 | -77.90011 | 28366 ft | 453 kts | 208° |
| 2026-04-27 18:11 | 34.75606 | -77.91566 | 27847 ft | 448 kts | 207° |
| 2026-04-27 18:11 | 34.72760 | -77.93129 | 27210 ft | 451 kts | 207° |
| 2026-04-27 18:11 | 34.69864 | -77.94727 | 26444 ft | 466 kts | 207° |
| 2026-04-27 18:12 | 34.66916 | -77.96355 | 25667 ft | 466 kts | 207° |
| 2026-04-27 18:12 | 34.63955 | -77.97986 | 24891 ft | 465 kts | 207° |
| 2026-04-27 18:12 | 34.61021 | -77.99599 | 24126 ft | 463 kts | 207° |
| 2026-04-27 18:12 | 34.58112 | -78.01197 | 23367 ft | 461 kts | 207° |
| 2026-04-27 18:13 | 34.55170 | -78.02812 | 22610 ft | 459 kts | 207° |
| 2026-04-27 18:13 | 34.52279 | -78.04397 | 21855 ft | 457 kts | 207° |
| 2026-04-27 18:13 | 34.49393 | -78.05979 | 21100 ft | 454 kts | 206° |
| 2026-04-27 18:13 | 34.46566 | -78.07528 | 20354 ft | 451 kts | 206° |
| 2026-04-27 18:14 | 34.43699 | -78.09097 | 19608 ft | 448 kts | 206° |
| 2026-04-27 18:14 | 34.40863 | -78.10648 | 18886 ft | 444 kts | 206° |
| 2026-04-27 18:14 | 34.38083 | -78.12168 | 18261 ft | 437 kts | 206° |
| 2026-04-27 18:14 | 34.35343 | -78.13666 | 17767 ft | 428 kts | 206° |
| 2026-04-27 18:15 | 34.32640 | -78.15144 | 17260 ft | 419 kts | 206° |
| 2026-04-27 18:15 | 34.30024 | -78.16573 | 16774 ft | 411 kts | 206° |
| 2026-04-27 18:15 | 34.27415 | -78.17999 | 16270 ft | 404 kts | 205° |
| 2026-04-27 18:15 | 34.24901 | -78.19372 | 15785 ft | 396 kts | 206° |
| 2026-04-27 18:16 | 34.22391 | -78.20738 | 15293 ft | 391 kts | 205° |
| 2026-04-27 18:16 | 34.19951 | -78.22066 | 14797 ft | 385 kts | 205° |
| 2026-04-27 18:16 | 34.17515 | -78.23390 | 14306 ft | 382 kts | 205° |
| 2026-04-27 18:16 | 34.15097 | -78.24706 | 13825 ft | 383 kts | 205° |
| 2026-04-27 18:17 | 34.12666 | -78.26029 | 13325 ft | 380 kts | 205° |
| 2026-04-27 18:17 | 34.10366 | -78.27513 | 12840 ft | 377 kts | 213° |
| 2026-04-27 18:17 | 34.08358 | -78.29551 | 12347 ft | 374 kts | 228° |
| 2026-04-27 18:17 | 34.06694 | -78.31930 | 11858 ft | 372 kts | 231° |
| 2026-04-27 18:18 | 34.04804 | -78.34034 | 11379 ft | 370 kts | 217° |
| 2026-04-27 18:18 | 34.02683 | -78.35741 | 10895 ft | 367 kts | 212° |
| 2026-04-27 18:18 | 34.00520 | -78.37337 | 10366 ft | 359 kts | 211° |
| 2026-04-27 18:18 | 33.98423 | -78.38862 | 9936 ft | 340 kts | 211° |
| 2026-04-27 18:19 | 33.96481 | -78.40279 | 9685 ft | 320 kts | 211° |
| 2026-04-27 18:19 | 33.94625 | -78.41644 | 9443 ft | 308 kts | 211° |
| 2026-04-27 18:19 | 33.92800 | -78.42987 | 9055 ft | 305 kts | 211° |
| 2026-04-27 18:19 | 33.90993 | -78.44319 | 8694 ft | 303 kts | 211° |
| 2026-04-27 18:20 | 33.89199 | -78.45641 | 8333 ft | 300 kts | 211° |
| 2026-04-27 18:20 | 33.87421 | -78.46950 | 7971 ft | 297 kts | 211° |
| 2026-04-27 18:20 | 33.85682 | -78.48231 | 7608 ft | 295 kts | 211° |
| 2026-04-27 18:20 | 33.83927 | -78.49523 | 7235 ft | 293 kts | 211° |
| 2026-04-27 18:21 | 33.82200 | -78.50795 | 6872 ft | 291 kts | 211° |
| 2026-04-27 18:21 | 33.80489 | -78.52057 | 6511 ft | 289 kts | 211° |
| 2026-04-27 18:21 | 33.78787 | -78.53314 | 6146 ft | 288 kts | 211° |
| 2026-04-27 18:21 | 33.77065 | -78.54582 | 5775 ft | 287 kts | 211° |
| 2026-04-27 18:22 | 33.75371 | -78.55830 | 5413 ft | 286 kts | 211° |
| 2026-04-27 18:22 | 33.73677 | -78.57077 | 5041 ft | 284 kts | 211° |
| 2026-04-27 18:22 | 33.72016 | -78.58302 | 4674 ft | 283 kts | 211° |
| 2026-04-27 18:22 | 33.70332 | -78.59547 | 4300 ft | 282 kts | 211° |
| 2026-04-27 18:23 | 33.68665 | -78.60780 | 3925 ft | 281 kts | 211° |
| 2026-04-27 18:23 | 33.66999 | -78.62009 | 3550 ft | 280 kts | 211° |
| 2026-04-27 18:23 | 33.65355 | -78.63224 | 3178 ft | 279 kts | 211° |
| 2026-04-27 18:23 | 33.63715 | -78.64438 | 2934 ft | 273 kts | 211° |
| 2026-04-27 18:24 | 33.62091 | -78.65642 | 2939 ft | 275 kts | 211° |
| 2026-04-27 18:24 | 33.60468 | -78.66850 | 2925 ft | 267 kts | 211° |
| 2026-04-27 18:24 | 33.58934 | -78.67997 | 2802 ft | 257 kts | 211° |
| 2026-04-27 18:24 | 33.57431 | -78.69125 | 2690 ft | 248 kts | 210° |
| 2026-04-27 18:25 | 33.56002 | -78.70198 | 2563 ft | 238 kts | 211° |
| 2026-04-27 18:25 | 33.54708 | -78.71394 | 2434 ft | 233 kts | 226° |
| 2026-04-27 18:25 | 33.53655 | -78.72849 | 2314 ft | 232 kts | 232° |
| 2026-04-27 18:25 | 33.52931 | -78.74570 | 2164 ft | 229 kts | 256° |
| 2026-04-27 18:26 | 33.52593 | -78.76389 | 1921 ft | 222 kts | 261° |
| 2026-04-27 18:26 | 33.52294 | -78.78185 | 1669 ft | 218 kts | 261° |
| 2026-04-27 18:26 | 33.52004 | -78.79929 | 1518 ft | 208 kts | 261° |
| 2026-04-27 18:26 | 33.51737 | -78.81587 | 1434 ft | 196 kts | 261° |
| 2026-04-27 18:27 | 33.51565 | -78.83124 | 1466 ft | 182 kts | 281° |
| 2026-04-27 18:27 | 33.52119 | -78.84432 | 1480 ft | 174 kts | 324° |
| 2026-04-27 18:27 | 33.53117 | -78.85189 | 1484 ft | 171 kts | 335° |
| 2026-04-27 18:27 | 33.54110 | -78.85962 | 1477 ft | 164 kts | 328° |
| 2026-04-27 18:28 | 33.55001 | -78.86805 | 1474 ft | 164 kts | 327° |
| 2026-04-27 18:28 | 33.55891 | -78.87665 | 1479 ft | 161 kts | 326° |
| 2026-04-27 18:28 | 33.56774 | -78.88515 | 1485 ft | 163 kts | 326° |
| 2026-04-27 18:28 | 33.57650 | -78.89356 | 1481 ft | 161 kts | 327° |
| 2026-04-27 18:29 | 33.58541 | -78.90209 | 1486 ft | 164 kts | 327° |
| 2026-04-27 18:29 | 33.59489 | -78.90827 | 1464 ft | 149 kts | 351° |
| 2026-04-27 18:29 | 33.60486 | -78.91001 | 1237 ft | 140 kts | 357° |
| 2026-04-27 18:29 | 33.61443 | -78.91202 | 1036 ft | 135 kts | 352° |
| 2026-04-27 18:30 | 33.62368 | -78.91435 | 873 ft | 138 kts | 351° |
| 2026-04-27 18:30 | 33.63308 | -78.91669 | 678 ft | 137 kts | 352° |
| 2026-04-27 18:30 | 33.64245 | -78.91901 | 462 ft | 137 kts | 351° |
| 2026-04-27 18:30 | 33.65167 | -78.92139 | 338 ft | 137 kts | 350° |
| 2026-04-27 18:31 | 33.66118 | -78.92369 | 167 ft | 140 kts | 350° |
| 2026-04-27 18:31 | 33.67079 | -78.92607 | 26 ft | 136 kts | 349° |
| 2026-04-27 18:31 | 33.67791 | -78.92786 | 25 ft | 65 kts | 347° |
| 2026-04-27 18:31 | 33.68058 | -78.92853 | 25 ft | 14 kts | 349° |
| 2026-04-27 18:32 | 33.68131 | -78.92813 | 25 ft | 18 kts | 56° |
| 2026-04-27 18:32 | 33.68173 | -78.92675 | 25 ft | 13 kts | 73° |
| 2026-04-27 18:32 | 33.68193 | -78.92571 | 25 ft | 12 kts | 67° |
| 2026-04-27 18:32 | 33.68221 | -78.92472 | 25 ft | 12 kts | 90° |
| 2026-04-27 18:33 | 33.68218 | -78.92416 | 25 ft | 2 kts | 93° |
| 2026-04-27 18:33 | 33.68218 | -78.92412 | 25 ft | 0 kts | 93° |